Portada
METAR-TAF:

METAR-TAF

Aeroports :

Alice Springs, Austràlia

latitud: 23-48S, longitud: 133-53E, altitud: 545 m

Observació

L'informe es va fer fa 34 minuts, a les 12:00 UTC
Vent 5 kt del Est/Nord-Est
Temperatura 13°C
Humitat 54%
Pressió 1020 hPa
Visibilitat 10 km o més

METAR: YBAS 251200Z AUTO 07005KT 9999 // NCD 13/04 Q1020 RF00.0/000.0

Hora: 22:04 (12:34 UTC)

Pronòstic

L'informe es va fer fa 1 hora i 29 minuts, a les 11:05 UTC
Pronòstic vàlid del 25 a les 12 UTC al 26 a les 12 UTC
Vent 8 kt del Est/Nord-Est
Visibilitat 10 km o més
sense núvols per sota de 1500 mi sense presència de cumulonimbus.
A partir de les 25 a les 2300 UTC
Vent 10 kt del Nord/Nord-Oest
Visibilitat 10 km o més
pluja

TAF: YBAS 251105Z 2512/2612 06008KT CAVOK FM252300 33010KT 9999 -RA NSC

Observacions i pronòstics meteorològics de més de 4000 aeroports (METAR i TAF).

Les estacions disponibles són els punts grocs i vermells al mapa.

Posi el ratolí al punt desitjat per veure el nom de l'estació.

Feu clic per veure les observacions i els pronòstics meteorològics.

Per canviar el mapa: feu clic els botons verds amb una creu de color negre per apropar; al botó verd amb un guió per allunyar la imatge; o en les fletxes verdes per a mapes adjacents.


METAR-TAF: